sensor_id;sensor_type;location;lat;lon;timestamp;P1;durP1;ratioP1;P2;durP2;ratioP2
28762;SDS011;15918;51.270;6.522;2023-07-24T00:01:17;3.78;;;3.40;;
28762;SDS011;15918;51.270;6.522;2023-07-24T00:03:43;5.55;;;3.70;;
28762;SDS011;15918;51.270;6.522;2023-07-24T00:06:12;4.22;;;3.83;;
28762;SDS011;15918;51.270;6.522;2023-07-24T00:08:37;4.32;;;3.90;;
28762;SDS011;15918;51.270;6.522;2023-07-24T00:11:06;4.00;;;3.45;;
28762;SDS011;15918;51.270;6.522;2023-07-24T00:13:33;6.00;;;3.53;;
28762;SDS011;15918;51.270;6.522;2023-07-24T00:15:58;4.07;;;3.67;;
28762;SDS011;15918;51.270;6.522;2023-07-24T00:18:24;5.65;;;3.80;;
28762;SDS011;15918;51.270;6.522;2023-07-24T00:20:49;3.80;;;3.50;;
28762;SDS011;15918;51.270;6.522;2023-07-24T00:23:15;3.92;;;3.58;;
28762;SDS011;15918;51.270;6.522;2023-07-24T00:25:41;3.50;;;3.20;;
28762;SDS011;15918;51.270;6.522;2023-07-24T00:28:06;3.65;;;3.10;;
28762;SDS011;15918;51.270;6.522;2023-07-24T00:30:32;4.10;;;3.10;;
28762;SDS011;15918;51.270;6.522;2023-07-24T00:32:57;3.78;;;3.47;;
28762;SDS011;15918;51.270;6.522;2023-07-24T00:35:23;4.90;;;3.45;;
28762;SDS011;15918;51.270;6.522;2023-07-24T00:37:48;3.80;;;3.38;;
28762;SDS011;15918;51.270;6.522;2023-07-24T00:40:14;3.92;;;3.50;;
28762;SDS011;15918;51.270;6.522;2023-07-24T00:42:40;5.72;;;3.40;;
28762;SDS011;15918;51.270;6.522;2023-07-24T00:45:05;4.40;;;3.45;;
28762;SDS011;15918;51.270;6.522;2023-07-24T00:47:31;4.57;;;3.63;;
28762;SDS011;15918;51.270;6.522;2023-07-24T00:49:57;3.78;;;3.47;;
28762;SDS011;15918;51.270;6.522;2023-07-24T00:52:23;3.85;;;3.50;;
28762;SDS011;15918;51.270;6.522;2023-07-24T00:54:50;5.60;;;3.60;;
28762;SDS011;15918;51.270;6.522;2023-07-24T00:57:15;4.72;;;3.88;;
28762;SDS011;15918;51.270;6.522;2023-07-24T00:59:41;3.80;;;3.35;;
28762;SDS011;15918;51.270;6.522;2023-07-24T01:02:08;4.22;;;3.60;;
28762;SDS011;15918;51.270;6.522;2023-07-24T01:04:34;3.58;;;2.88;;
28762;SDS011;15918;51.270;6.522;2023-07-24T01:06:59;4.68;;;3.55;;
28762;SDS011;15918;51.270;6.522;2023-07-24T01:09:25;5.60;;;3.78;;
28762;SDS011;15918;51.270;6.522;2023-07-24T01:11:54;6.53;;;3.97;;
28762;SDS011;15918;51.270;6.522;2023-07-24T01:14:40;4.53;;;3.70;;
28762;SDS011;15918;51.270;6.522;2023-07-24T01:17:12;5.40;;;3.58;;
28762;SDS011;15918;51.270;6.522;2023-07-24T01:19:42;4.93;;;4.10;;
28762;SDS011;15918;51.270;6.522;2023-07-24T01:27:52;15.38;;;10.95;;
28762;SDS011;15918;51.270;6.522;2023-07-24T01:30:18;15.38;;;12.68;;
28762;SDS011;15918;51.270;6.522;2023-07-24T01:32:44;15.93;;;12.45;;
28762;SDS011;15918;51.270;6.522;2023-07-24T01:35:10;15.32;;;12.27;;
28762;SDS011;15918;51.270;6.522;2023-07-24T01:37:36;18.15;;;12.50;;
28762;SDS011;15918;51.270;6.522;2023-07-24T01:40:05;15.85;;;10.45;;
28762;SDS011;15918;51.270;6.522;2023-07-24T01:42:33;16.25;;;12.00;;
28762;SDS011;15918;51.270;6.522;2023-07-24T01:44:59;10.68;;;8.82;;
28762;SDS011;15918;51.270;6.522;2023-07-24T01:47:25;10.10;;;8.52;;
28762;SDS011;15918;51.270;6.522;2023-07-24T01:49:50;8.65;;;7.13;;
28762;SDS011;15918;51.270;6.522;2023-07-24T01:52:17;8.15;;;6.50;;
28762;SDS011;15918;51.270;6.522;2023-07-24T01:54:43;8.38;;;6.47;;
28762;SDS011;15918;51.270;6.522;2023-07-24T01:57:09;8.20;;;6.68;;
28762;SDS011;15918;51.270;6.522;2023-07-24T01:59:34;6.35;;;5.60;;
28762;SDS011;15918;51.270;6.522;2023-07-24T02:02:00;8.32;;;6.03;;
28762;SDS011;15918;51.270;6.522;2023-07-24T02:04:25;5.88;;;4.68;;
28762;SDS011;15918;51.270;6.522;2023-07-24T02:06:51;7.78;;;4.70;;
28762;SDS011;15918;51.270;6.522;2023-07-24T02:09:19;5.30;;;4.28;;
28762;SDS011;15918;51.270;6.522;2023-07-24T02:11:45;4.90;;;4.40;;
28762;SDS011;15918;51.270;6.522;2023-07-24T02:14:11;6.47;;;4.57;;
28762;SDS011;15918;51.270;6.522;2023-07-24T02:16:38;8.63;;;4.57;;
28762;SDS011;15918;51.270;6.522;2023-07-24T02:19:04;7.82;;;4.28;;
28762;SDS011;15918;51.270;6.522;2023-07-24T02:21:30;4.85;;;4.32;;
28762;SDS011;15918;51.270;6.522;2023-07-24T02:23:56;5.47;;;4.40;;
28762;SDS011;15918;51.270;6.522;2023-07-24T02:26:22;5.82;;;3.92;;
28762;SDS011;15918;51.270;6.522;2023-07-24T02:28:47;4.85;;;4.18;;
28762;SDS011;15918;51.270;6.522;2023-07-24T02:31:13;8.93;;;4.55;;
28762;SDS011;15918;51.270;6.522;2023-07-24T02:33:39;4.90;;;4.43;;
28762;SDS011;15918;51.270;6.522;2023-07-24T02:36:04;6.75;;;4.97;;
28762;SDS011;15918;51.270;6.522;2023-07-24T02:38:30;6.55;;;4.43;;
28762;SDS011;15918;51.270;6.522;2023-07-24T02:40:55;8.05;;;4.15;;
28762;SDS011;15918;51.270;6.522;2023-07-24T02:43:21;5.95;;;4.25;;
28762;SDS011;15918;51.270;6.522;2023-07-24T02:45:47;12.30;;;4.45;;
28762;SDS011;15918;51.270;6.522;2023-07-24T02:48:12;5.82;;;4.15;;
28762;SDS011;15918;51.270;6.522;2023-07-24T02:50:38;6.53;;;4.07;;
28762;SDS011;15918;51.270;6.522;2023-07-24T02:53:04;7.07;;;4.82;;
28762;SDS011;15918;51.270;6.522;2023-07-24T02:55:29;8.38;;;4.68;;
28762;SDS011;15918;51.270;6.522;2023-07-24T02:57:55;8.60;;;5.05;;
28762;SDS011;15918;51.270;6.522;2023-07-24T03:00:21;7.20;;;4.65;;
28762;SDS011;15918;51.270;6.522;2023-07-24T03:02:47;7.50;;;4.80;;
28762;SDS011;15918;51.270;6.522;2023-07-24T03:05:12;8.32;;;5.03;;
28762;SDS011;15918;51.270;6.522;2023-07-24T03:07:38;9.35;;;5.35;;
28762;SDS011;15918;51.270;6.522;2023-07-24T03:10:03;8.93;;;5.20;;
28762;SDS011;15918;51.270;6.522;2023-07-24T03:12:29;7.60;;;5.00;;
28762;SDS011;15918;51.270;6.522;2023-07-24T03:14:55;7.18;;;5.00;;
28762;SDS011;15918;51.270;6.522;2023-07-24T03:17:21;11.75;;;4.55;;
28762;SDS011;15918;51.270;6.522;2023-07-24T03:19:48;6.47;;;4.60;;
28762;SDS011;15918;51.270;6.522;2023-07-24T03:22:13;6.95;;;4.72;;
28762;SDS011;15918;51.270;6.522;2023-07-24T03:24:39;7.88;;;4.93;;
28762;SDS011;15918;51.270;6.522;2023-07-24T03:27:05;9.05;;;5.45;;
28762;SDS011;15918;51.270;6.522;2023-07-24T03:29:30;7.38;;;5.28;;
28762;SDS011;15918;51.270;6.522;2023-07-24T03:31:56;7.15;;;4.95;;
28762;SDS011;15918;51.270;6.522;2023-07-24T03:34:22;9.13;;;4.68;;
28762;SDS011;15918;51.270;6.522;2023-07-24T03:36:47;9.07;;;4.70;;
28762;SDS011;15918;51.270;6.522;2023-07-24T03:39:13;5.47;;;4.88;;
28762;SDS011;15918;51.270;6.522;2023-07-24T03:41:39;6.72;;;4.85;;
28762;SDS011;15918;51.270;6.522;2023-07-24T03:44:06;10.60;;;5.55;;
28762;SDS011;15918;51.270;6.522;2023-07-24T03:46:32;6.93;;;4.85;;
28762;SDS011;15918;51.270;6.522;2023-07-24T03:48:57;7.18;;;5.47;;
28762;SDS011;15918;51.270;6.522;2023-07-24T03:51:23;9.40;;;5.05;;
28762;SDS011;15918;51.270;6.522;2023-07-24T03:53:49;7.85;;;5.70;;
28762;SDS011;15918;51.270;6.522;2023-07-24T03:56:14;7.45;;;4.85;;
28762;SDS011;15918;51.270;6.522;2023-07-24T03:58:40;7.43;;;5.50;;
28762;SDS011;15918;51.270;6.522;2023-07-24T04:01:06;5.70;;;4.75;;
28762;SDS011;15918;51.270;6.522;2023-07-24T04:03:32;8.02;;;5.30;;
28762;SDS011;15918;51.270;6.522;2023-07-24T04:05:58;9.95;;;5.82;;
28762;SDS011;15918;51.270;6.522;2023-07-24T04:08:24;7.57;;;5.40;;
28762;SDS011;15918;51.270;6.522;2023-07-24T04:10:49;10.02;;;6.15;;
28762;SDS011;15918;51.270;6.522;2023-07-24T04:13:15;12.40;;;5.75;;
28762;SDS011;15918;51.270;6.522;2023-07-24T04:15:41;9.23;;;5.72;;
28762;SDS011;15918;51.270;6.522;2023-07-24T04:18:06;8.15;;;6.18;;
28762;SDS011;15918;51.270;6.522;2023-07-24T04:20:32;12.60;;;6.18;;
28762;SDS011;15918;51.270;6.522;2023-07-24T04:22:58;10.38;;;6.50;;
28762;SDS011;15918;51.270;6.522;2023-07-24T04:25:23;10.05;;;6.28;;
28762;SDS011;15918;51.270;6.522;2023-07-24T04:27:49;7.47;;;5.40;;
28762;SDS011;15918;51.270;6.522;2023-07-24T04:30:14;8.93;;;6.25;;
28762;SDS011;15918;51.270;6.522;2023-07-24T04:32:41;7.97;;;6.13;;
28762;SDS011;15918;51.270;6.522;2023-07-24T04:35:07;9.68;;;6.05;;
28762;SDS011;15918;51.270;6.522;2023-07-24T04:37:33;11.10;;;5.97;;
28762;SDS011;15918;51.270;6.522;2023-07-24T04:39:59;7.55;;;5.68;;
28762;SDS011;15918;51.270;6.522;2023-07-24T04:42:24;7.32;;;6.10;;
28762;SDS011;15918;51.270;6.522;2023-07-24T04:44:50;9.45;;;5.50;;
28762;SDS011;15918;51.270;6.522;2023-07-24T04:47:16;10.15;;;6.38;;
28762;SDS011;15918;51.270;6.522;2023-07-24T04:49:42;8.65;;;6.07;;
28762;SDS011;15918;51.270;6.522;2023-07-24T04:52:07;10.32;;;6.28;;
28762;SDS011;15918;51.270;6.522;2023-07-24T04:54:33;8.90;;;6.53;;
28762;SDS011;15918;51.270;6.522;2023-07-24T04:56:58;6.53;;;5.70;;
28762;SDS011;15918;51.270;6.522;2023-07-24T04:59:24;6.90;;;6.00;;
28762;SDS011;15918;51.270;6.522;2023-07-24T05:01:50;10.55;;;6.20;;
28762;SDS011;15918;51.270;6.522;2023-07-24T05:04:15;8.20;;;6.53;;
28762;SDS011;15918;51.270;6.522;2023-07-24T05:06:41;9.27;;;5.63;;
28762;SDS011;15918;51.270;6.522;2023-07-24T05:09:07;8.05;;;6.18;;
28762;SDS011;15918;51.270;6.522;2023-07-24T05:11:32;7.03;;;6.32;;
28762;SDS011;15918;51.270;6.522;2023-07-24T05:13:58;8.93;;;6.60;;
28762;SDS011;15918;51.270;6.522;2023-07-24T05:16:23;7.78;;;6.53;;
28762;SDS011;15918;51.270;6.522;2023-07-24T05:18:49;8.80;;;6.53;;
28762;SDS011;15918;51.270;6.522;2023-07-24T05:21:14;8.18;;;5.93;;
28762;SDS011;15918;51.270;6.522;2023-07-24T05:23:40;9.02;;;6.20;;
28762;SDS011;15918;51.270;6.522;2023-07-24T05:26:06;9.23;;;6.32;;
28762;SDS011;15918;51.270;6.522;2023-07-24T05:28:31;6.90;;;6.07;;
28762;SDS011;15918;51.270;6.522;2023-07-24T05:31:04;8.48;;;5.90;;
28762;SDS011;15918;51.270;6.522;2023-07-24T05:33:30;10.18;;;6.35;;
28762;SDS011;15918;51.270;6.522;2023-07-24T05:36:03;7.15;;;6.40;;
28762;SDS011;15918;51.270;6.522;2023-07-24T05:38:29;12.85;;;6.80;;
28762;SDS011;15918;51.270;6.522;2023-07-24T05:40:58;8.70;;;6.70;;
28762;SDS011;15918;51.270;6.522;2023-07-24T05:43:25;8.45;;;5.90;;
28762;SDS011;15918;51.270;6.522;2023-07-24T05:45:52;7.15;;;5.97;;
28762;SDS011;15918;51.270;6.522;2023-07-24T05:48:19;7.18;;;6.38;;
28762;SDS011;15918;51.270;6.522;2023-07-24T05:50:45;8.82;;;6.72;;
28762;SDS011;15918;51.270;6.522;2023-07-24T05:53:11;8.85;;;6.63;;
28762;SDS011;15918;51.270;6.522;2023-07-24T05:55:36;10.45;;;6.68;;
28762;SDS011;15918;51.270;6.522;2023-07-24T05:58:02;7.68;;;6.35;;
28762;SDS011;15918;51.270;6.522;2023-07-24T06:00:28;11.95;;;6.85;;
28762;SDS011;15918;51.270;6.522;2023-07-24T06:02:53;9.00;;;6.53;;
28762;SDS011;15918;51.270;6.522;2023-07-24T06:05:19;10.07;;;6.88;;
28762;SDS011;15918;51.270;6.522;2023-07-24T06:07:45;8.52;;;6.53;;
28762;SDS011;15918;51.270;6.522;2023-07-24T06:10:11;8.05;;;5.63;;
28762;SDS011;15918;51.270;6.522;2023-07-24T06:12:37;9.00;;;6.55;;
28762;SDS011;15918;51.270;6.522;2023-07-24T06:15:03;10.70;;;6.70;;
28762;SDS011;15918;51.270;6.522;2023-07-24T06:17:29;9.73;;;7.05;;
28762;SDS011;15918;51.270;6.522;2023-07-24T06:19:55;9.00;;;6.30;;
28762;SDS011;15918;51.270;6.522;2023-07-24T06:22:21;6.78;;;5.55;;
28762;SDS011;15918;51.270;6.522;2023-07-24T06:24:47;8.38;;;5.63;;
28762;SDS011;15918;51.270;6.522;2023-07-24T06:27:13;9.48;;;6.07;;
28762;SDS011;15918;51.270;6.522;2023-07-24T06:29:38;8.02;;;5.75;;
28762;SDS011;15918;51.270;6.522;2023-07-24T06:32:04;9.77;;;5.47;;
28762;SDS011;15918;51.270;6.522;2023-07-24T06:34:30;8.57;;;5.78;;
28762;SDS011;15918;51.270;6.522;2023-07-24T06:36:56;6.75;;;5.35;;
28762;SDS011;15918;51.270;6.522;2023-07-24T06:39:21;11.18;;;6.00;;
28762;SDS011;15918;51.270;6.522;2023-07-24T06:41:47;9.05;;;6.38;;
28762;SDS011;15918;51.270;6.522;2023-07-24T06:44:12;7.60;;;5.97;;
28762;SDS011;15918;51.270;6.522;2023-07-24T06:46:38;9.80;;;5.82;;
28762;SDS011;15918;51.270;6.522;2023-07-24T06:49:04;6.82;;;5.80;;
28762;SDS011;15918;51.270;6.522;2023-07-24T06:51:29;7.65;;;5.32;;
28762;SDS011;15918;51.270;6.522;2023-07-24T06:53:55;6.57;;;5.65;;
28762;SDS011;15918;51.270;6.522;2023-07-24T06:56:20;5.93;;;5.30;;
28762;SDS011;15918;51.270;6.522;2023-07-24T06:58:46;8.05;;;5.70;;
28762;SDS011;15918;51.270;6.522;2023-07-24T07:01:12;6.43;;;5.75;;
28762;SDS011;15918;51.270;6.522;2023-07-24T07:03:37;7.30;;;5.40;;
28762;SDS011;15918;51.270;6.522;2023-07-24T07:06:03;6.90;;;5.05;;
28762;SDS011;15918;51.270;6.522;2023-07-24T07:08:29;5.70;;;5.10;;
28762;SDS011;15918;51.270;6.522;2023-07-24T07:10:56;6.43;;;4.88;;
28762;SDS011;15918;51.270;6.522;2023-07-24T07:13:22;9.65;;;5.40;;
28762;SDS011;15918;51.270;6.522;2023-07-24T07:15:47;6.22;;;5.18;;
28762;SDS011;15918;51.270;6.522;2023-07-24T07:18:13;5.28;;;4.70;;
28762;SDS011;15918;51.270;6.522;2023-07-24T07:20:44;7.38;;;5.22;;
28762;SDS011;15918;51.270;6.522;2023-07-24T07:23:11;6.55;;;4.68;;
28762;SDS011;15918;51.270;6.522;2023-07-24T07:25:37;7.80;;;5.47;;
28762;SDS011;15918;51.270;6.522;2023-07-24T07:28:02;8.88;;;5.47;;
28762;SDS011;15918;51.270;6.522;2023-07-24T07:30:28;8.27;;;5.70;;
28762;SDS011;15918;51.270;6.522;2023-07-24T07:32:54;5.47;;;4.97;;
28762;SDS011;15918;51.270;6.522;2023-07-24T07:35:19;5.40;;;4.90;;
28762;SDS011;15918;51.270;6.522;2023-07-24T07:37:45;7.07;;;4.78;;
28762;SDS011;15918;51.270;6.522;2023-07-24T07:40:11;6.47;;;4.70;;
28762;SDS011;15918;51.270;6.522;2023-07-24T07:42:36;7.68;;;5.40;;
28762;SDS011;15918;51.270;6.522;2023-07-24T07:45:02;8.43;;;5.22;;
28762;SDS011;15918;51.270;6.522;2023-07-24T07:47:29;6.22;;;5.55;;
28762;SDS011;15918;51.270;6.522;2023-07-24T07:49:54;6.45;;;4.90;;
28762;SDS011;15918;51.270;6.522;2023-07-24T07:52:20;5.40;;;4.65;;
28762;SDS011;15918;51.270;6.522;2023-07-24T07:54:47;7.45;;;5.00;;
28762;SDS011;15918;51.270;6.522;2023-07-24T07:57:14;5.60;;;5.10;;
28762;SDS011;15918;51.270;6.522;2023-07-24T07:59:40;6.20;;;5.00;;
28762;SDS011;15918;51.270;6.522;2023-07-24T08:02:06;6.32;;;5.47;;
28762;SDS011;15918;51.270;6.522;2023-07-24T08:04:31;5.82;;;5.20;;
28762;SDS011;15918;51.270;6.522;2023-07-24T08:06:57;6.97;;;5.47;;
28762;SDS011;15918;51.270;6.522;2023-07-24T08:09:23;6.22;;;4.72;;
28762;SDS011;15918;51.270;6.522;2023-07-24T08:11:49;6.28;;;4.63;;
28762;SDS011;15918;51.270;6.522;2023-07-24T08:14:16;7.13;;;4.63;;
28762;SDS011;15918;51.270;6.522;2023-07-24T08:16:42;9.25;;;4.70;;
28762;SDS011;15918;51.270;6.522;2023-07-24T08:19:07;5.30;;;4.72;;
28762;SDS011;15918;51.270;6.522;2023-07-24T08:21:33;4.43;;;4.03;;
28762;SDS011;15918;51.270;6.522;2023-07-24T08:23:59;6.47;;;4.47;;
28762;SDS011;15918;51.270;6.522;2023-07-24T08:26:26;5.53;;;4.85;;
28762;SDS011;15918;51.270;6.522;2023-07-24T08:28:52;5.60;;;4.22;;
28762;SDS011;15918;51.270;6.522;2023-07-24T08:31:18;6.90;;;4.40;;
28762;SDS011;15918;51.270;6.522;2023-07-24T08:33:44;7.38;;;4.68;;
28762;SDS011;15918;51.270;6.522;2023-07-24T08:36:10;4.72;;;4.32;;
28762;SDS011;15918;51.270;6.522;2023-07-24T08:38:37;4.55;;;4.15;;
28762;SDS011;15918;51.270;6.522;2023-07-24T08:43:36;7.35;;;3.67;;
28762;SDS011;15918;51.270;6.522;2023-07-24T08:46:03;5.63;;;3.42;;
28762;SDS011;15918;51.270;6.522;2023-07-24T08:48:29;3.85;;;3.17;;
28762;SDS011;15918;51.270;6.522;2023-07-24T08:51:10;3.63;;;3.17;;
28762;SDS011;15918;51.270;6.522;2023-07-24T08:53:38;3.95;;;3.22;;
28762;SDS011;15918;51.270;6.522;2023-07-24T08:56:07;5.13;;;2.78;;
28762;SDS011;15918;51.270;6.522;2023-07-24T08:58:34;3.35;;;3.05;;
28762;SDS011;15918;51.270;6.522;2023-07-24T09:01:00;3.33;;;3.03;;
28762;SDS011;15918;51.270;6.522;2023-07-24T09:03:27;3.40;;;3.10;;
28762;SDS011;15918;51.270;6.522;2023-07-24T09:05:53;3.78;;;3.08;;
28762;SDS011;15918;51.270;6.522;2023-07-24T09:11:18;3.55;;;3.22;;
28762;SDS011;15918;51.270;6.522;2023-07-24T09:13:44;4.72;;;3.17;;
28762;SDS011;15918;51.270;6.522;2023-07-24T09:16:20;4.28;;;3.10;;
28762;SDS011;15918;51.270;6.522;2023-07-24T09:18:49;3.85;;;3.38;;
28762;SDS011;15918;51.270;6.522;2023-07-24T09:21:26;4.78;;;3.20;;
28762;SDS011;15918;51.270;6.522;2023-07-24T09:23:55;3.13;;;2.65;;
28762;SDS011;15918;51.270;6.522;2023-07-24T09:26:21;4.97;;;3.30;;
28762;SDS011;15918;51.270;6.522;2023-07-24T09:28:53;4.00;;;3.30;;
28762;SDS011;15918;51.270;6.522;2023-07-24T09:31:19;3.20;;;2.90;;
28762;SDS011;15918;51.270;6.522;2023-07-24T09:33:44;4.15;;;3.72;;
28762;SDS011;15918;51.270;6.522;2023-07-24T09:36:11;5.95;;;4.30;;
28762;SDS011;15918;51.270;6.522;2023-07-24T09:38:38;4.10;;;3.72;;
28762;SDS011;15918;51.270;6.522;2023-07-24T09:41:04;4.35;;;3.90;;
28762;SDS011;15918;51.270;6.522;2023-07-24T09:43:31;6.70;;;4.00;;
28762;SDS011;15918;51.270;6.522;2023-07-24T09:46:00;5.38;;;3.92;;
28762;SDS011;15918;51.270;6.522;2023-07-24T09:48:26;5.97;;;3.88;;
28762;SDS011;15918;51.270;6.522;2023-07-24T09:50:56;4.00;;;3.70;;
28762;SDS011;15918;51.270;6.522;2023-07-24T09:56:20;4.07;;;3.55;;
28762;SDS011;15918;51.270;6.522;2023-07-24T09:58:47;5.15;;;4.15;;
28762;SDS011;15918;51.270;6.522;2023-07-24T10:01:14;4.85;;;3.85;;
28762;SDS011;15918;51.270;6.522;2023-07-24T10:03:45;4.32;;;3.60;;
28762;SDS011;15918;51.270;6.522;2023-07-24T10:06:12;4.88;;;4.13;;
28762;SDS011;15918;51.270;6.522;2023-07-24T10:08:39;8.35;;;4.40;;
28762;SDS011;15918;51.270;6.522;2023-07-24T10:11:06;6.50;;;4.18;;
28762;SDS011;15918;51.270;6.522;2023-07-24T10:13:37;7.75;;;4.78;;
28762;SDS011;15918;51.270;6.522;2023-07-24T10:16:03;4.80;;;4.30;;
28762;SDS011;15918;51.270;6.522;2023-07-24T10:18:32;6.03;;;4.90;;
28762;SDS011;15918;51.270;6.522;2023-07-24T10:21:08;11.70;;;5.20;;
28762;SDS011;15918;51.270;6.522;2023-07-24T10:23:42;11.52;;;6.07;;
28762;SDS011;15918;51.270;6.522;2023-07-24T10:26:09;10.65;;;5.07;;
28762;SDS011;15918;51.270;6.522;2023-07-24T10:28:35;8.18;;;4.95;;
28762;SDS011;15918;51.270;6.522;2023-07-24T10:31:06;8.27;;;4.68;;
28762;SDS011;15918;51.270;6.522;2023-07-24T10:33:35;7.25;;;4.90;;
28762;SDS011;15918;51.270;6.522;2023-07-24T10:36:09;6.10;;;4.10;;
28762;SDS011;15918;51.270;6.522;2023-07-24T10:38:36;6.15;;;3.40;;
28762;SDS011;15918;51.270;6.522;2023-07-24T10:41:04;6.90;;;3.58;;
28762;SDS011;15918;51.270;6.522;2023-07-24T10:46:13;5.68;;;3.70;;
28762;SDS011;15918;51.270;6.522;2023-07-24T10:48:44;3.92;;;3.03;;
28762;SDS011;15918;51.270;6.522;2023-07-24T10:51:10;3.20;;;2.90;;
28762;SDS011;15918;51.270;6.522;2023-07-24T10:53:40;3.92;;;3.28;;
28762;SDS011;15918;51.270;6.522;2023-07-24T10:56:10;3.40;;;3.10;;
28762;SDS011;15918;51.270;6.522;2023-07-24T10:58:36;3.95;;;3.20;;
28762;SDS011;15918;51.270;6.522;2023-07-24T11:01:05;6.95;;;3.50;;
28762;SDS011;15918;51.270;6.522;2023-07-24T11:03:32;4.57;;;3.83;;
28762;SDS011;15918;51.270;6.522;2023-07-24T11:06:00;5.22;;;3.33;;
28762;SDS011;15918;51.270;6.522;2023-07-24T11:08:27;4.20;;;3.60;;
28762;SDS011;15918;51.270;6.522;2023-07-24T11:10:54;4.30;;;3.70;;
28762;SDS011;15918;51.270;6.522;2023-07-24T11:13:25;4.65;;;3.58;;
28762;SDS011;15918;51.270;6.522;2023-07-24T11:15:52;3.95;;;3.38;;
28762;SDS011;15918;51.270;6.522;2023-07-24T11:18:19;4.55;;;3.40;;
28762;SDS011;15918;51.270;6.522;2023-07-24T11:20:52;7.15;;;3.72;;
28762;SDS011;15918;51.270;6.522;2023-07-24T11:23:19;7.43;;;4.00;;
28762;SDS011;15918;51.270;6.522;2023-07-24T11:25:45;3.58;;;3.28;;
28762;SDS011;15918;51.270;6.522;2023-07-24T11:28:12;5.63;;;3.90;;
28762;SDS011;15918;51.270;6.522;2023-07-24T11:30:39;8.15;;;3.63;;
28762;SDS011;15918;51.270;6.522;2023-07-24T11:33:06;8.13;;;3.88;;
28762;SDS011;15918;51.270;6.522;2023-07-24T11:35:33;6.45;;;4.18;;
28762;SDS011;15918;51.270;6.522;2023-07-24T11:38:00;7.60;;;4.00;;
28762;SDS011;15918;51.270;6.522;2023-07-24T11:43:22;4.60;;;3.15;;
28762;SDS011;15918;51.270;6.522;2023-07-24T11:45:49;3.40;;;3.10;;
28762;SDS011;15918;51.270;6.522;2023-07-24T11:48:21;3.40;;;3.05;;
28762;SDS011;15918;51.270;6.522;2023-07-24T11:50:48;3.75;;;2.95;;
28762;SDS011;15918;51.270;6.522;2023-07-24T11:53:19;4.70;;;3.08;;
28762;SDS011;15918;51.270;6.522;2023-07-24T11:55:48;4.70;;;3.20;;
28762;SDS011;15918;51.270;6.522;2023-07-24T11:58:15;4.45;;;2.78;;
28762;SDS011;15918;51.270;6.522;2023-07-24T12:00:41;3.83;;;2.90;;
28762;SDS011;15918;51.270;6.522;2023-07-24T12:03:07;3.40;;;2.78;;
28762;SDS011;15918;51.270;6.522;2023-07-24T12:05:39;2.80;;;2.60;;
28762;SDS011;15918;51.270;6.522;2023-07-24T12:08:06;2.92;;;2.70;;
28762;SDS011;15918;51.270;6.522;2023-07-24T12:10:35;3.90;;;2.90;;
28762;SDS011;15918;51.270;6.522;2023-07-24T12:13:01;3.05;;;2.80;;
28762;SDS011;15918;51.270;6.522;2023-07-24T12:15:27;2.95;;;2.65;;
28762;SDS011;15918;51.270;6.522;2023-07-24T12:17:53;4.15;;;2.83;;
28762;SDS011;15918;51.270;6.522;2023-07-24T12:20:19;4.25;;;2.65;;
28762;SDS011;15918;51.270;6.522;2023-07-24T12:22:44;3.45;;;3.08;;
28762;SDS011;15918;51.270;6.522;2023-07-24T12:25:11;3.53;;;3.15;;
28762;SDS011;15918;51.270;6.522;2023-07-24T12:27:36;4.00;;;3.38;;
28762;SDS011;15918;51.270;6.522;2023-07-24T12:30:04;5.65;;;3.78;;
28762;SDS011;15918;51.270;6.522;2023-07-24T12:32:31;3.85;;;3.00;;
28762;SDS011;15918;51.270;6.522;2023-07-24T12:34:57;3.20;;;2.92;;
28762;SDS011;15918;51.270;6.522;2023-07-24T12:37:22;4.88;;;2.63;;
28762;SDS011;15918;51.270;6.522;2023-07-24T12:39:48;4.63;;;3.10;;
28762;SDS011;15918;51.270;6.522;2023-07-24T12:42:14;3.47;;;2.65;;
28762;SDS011;15918;51.270;6.522;2023-07-24T12:44:40;2.63;;;2.40;;
28762;SDS011;15918;51.270;6.522;2023-07-24T12:47:07;4.65;;;2.20;;
28762;SDS011;15918;51.270;6.522;2023-07-24T12:49:33;3.28;;;2.40;;
28762;SDS011;15918;51.270;6.522;2023-07-24T12:51:59;4.85;;;2.97;;
28762;SDS011;15918;51.270;6.522;2023-07-24T12:54:24;4.22;;;2.80;;
28762;SDS011;15918;51.270;6.522;2023-07-24T12:56:50;2.90;;;2.55;;
28762;SDS011;15918;51.270;6.522;2023-07-24T12:59:16;3.13;;;2.58;;
28762;SDS011;15918;51.270;6.522;2023-07-24T13:01:42;2.95;;;2.65;;
28762;SDS011;15918;51.270;6.522;2023-07-24T13:04:08;3.28;;;2.55;;
28762;SDS011;15918;51.270;6.522;2023-07-24T13:06:34;2.67;;;2.47;;
28762;SDS011;15918;51.270;6.522;2023-07-24T13:09:00;3.33;;;2.80;;
28762;SDS011;15918;51.270;6.522;2023-07-24T13:11:25;4.30;;;2.47;;
28762;SDS011;15918;51.270;6.522;2023-07-24T13:13:53;2.50;;;2.30;;
28762;SDS011;15918;51.270;6.522;2023-07-24T13:16:18;3.10;;;2.90;;
28762;SDS011;15918;51.270;6.522;2023-07-24T13:18:44;2.40;;;2.20;;
28762;SDS011;15918;51.270;6.522;2023-07-24T13:21:10;3.53;;;2.80;;
28762;SDS011;15918;51.270;6.522;2023-07-24T13:23:36;3.78;;;2.83;;
28762;SDS011;15918;51.270;6.522;2023-07-24T13:26:02;3.20;;;2.90;;
28762;SDS011;15918;51.270;6.522;2023-07-24T13:28:27;3.30;;;2.40;;
28762;SDS011;15918;51.270;6.522;2023-07-24T13:30:54;2.55;;;2.08;;
28762;SDS011;15918;51.270;6.522;2023-07-24T13:33:20;4.18;;;2.20;;
28762;SDS011;15918;51.270;6.522;2023-07-24T13:35:47;2.38;;;2.17;;
28762;SDS011;15918;51.270;6.522;2023-07-24T13:38:13;2.65;;;2.45;;
28762;SDS011;15918;51.270;6.522;2023-07-24T13:40:39;2.42;;;2.22;;
28762;SDS011;15918;51.270;6.522;2023-07-24T13:43:05;3.05;;;2.45;;
28762;SDS011;15918;51.270;6.522;2023-07-24T13:45:31;3.00;;;2.70;;
28762;SDS011;15918;51.270;6.522;2023-07-24T13:47:57;4.63;;;2.20;;
28762;SDS011;15918;51.270;6.522;2023-07-24T13:50:27;2.47;;;2.25;;
28762;SDS011;15918;51.270;6.522;2023-07-24T13:52:53;3.33;;;2.50;;
28762;SDS011;15918;51.270;6.522;2023-07-24T13:55:18;5.03;;;3.20;;
28762;SDS011;15918;51.270;6.522;2023-07-24T13:57:44;3.20;;;2.65;;
28762;SDS011;15918;51.270;6.522;2023-07-24T14:00:10;4.45;;;2.55;;
28762;SDS011;15918;51.270;6.522;2023-07-24T14:02:35;3.55;;;2.83;;
28762;SDS011;15918;51.270;6.522;2023-07-24T14:05:01;4.20;;;3.28;;
28762;SDS011;15918;51.270;6.522;2023-07-24T14:07:27;4.50;;;2.40;;
28762;SDS011;15918;51.270;6.522;2023-07-24T14:09:52;2.65;;;2.45;;
28762;SDS011;15918;51.270;6.522;2023-07-24T14:12:18;3.15;;;2.55;;
28762;SDS011;15918;51.270;6.522;2023-07-24T14:14:43;3.47;;;2.92;;
28762;SDS011;15918;51.270;6.522;2023-07-24T14:17:09;3.22;;;2.92;;
28762;SDS011;15918;51.270;6.522;2023-07-24T14:19:35;4.03;;;2.60;;
28762;SDS011;15918;51.270;6.522;2023-07-24T14:22:00;2.95;;;2.75;;
28762;SDS011;15918;51.270;6.522;2023-07-24T14:24:26;2.80;;;2.60;;
28762;SDS011;15918;51.270;6.522;2023-07-24T14:26:52;4.82;;;3.03;;
28762;SDS011;15918;51.270;6.522;2023-07-24T14:29:18;3.15;;;2.85;;
28762;SDS011;15918;51.270;6.522;2023-07-24T14:31:43;3.05;;;2.75;;
28762;SDS011;15918;51.270;6.522;2023-07-24T14:34:09;6.85;;;3.15;;
28762;SDS011;15918;51.270;6.522;2023-07-24T14:36:37;3.00;;;2.80;;
28762;SDS011;15918;51.270;6.522;2023-07-24T14:39:03;3.05;;;2.85;;
28762;SDS011;15918;51.270;6.522;2023-07-24T14:41:29;3.05;;;2.83;;
28762;SDS011;15918;51.270;6.522;2023-07-24T14:43:55;4.35;;;3.03;;
28762;SDS011;15918;51.270;6.522;2023-07-24T14:46:21;4.68;;;3.28;;
28762;SDS011;15918;51.270;6.522;2023-07-24T14:48:46;3.65;;;3.30;;
28762;SDS011;15918;51.270;6.522;2023-07-24T14:51:12;3.47;;;3.20;;
28762;SDS011;15918;51.270;6.522;2023-07-24T14:53:37;3.20;;;2.80;;
28762;SDS011;15918;51.270;6.522;2023-07-24T14:56:03;3.30;;;3.00;;
28762;SDS011;15918;51.270;6.522;2023-07-24T14:58:29;3.17;;;2.90;;
28762;SDS011;15918;51.270;6.522;2023-07-24T15:00:55;4.30;;;3.22;;